Time;durP1;ratioP1;P1;durP2;ratioP2;P2;SDS_P1;SDS_P2;PMS_P1;PMS_P2;Temp;Humidity;BMP_temperature;BMP_pressure;BME280_temperature;BME280_humidity;BME280_pressure;Samples;Min_cycle;Max_cycle;Signal;HPM_P1;HPM_P2
2023/09/10 00:00:09;;;;;;;;;;;18.70;99.90;;;;;;5063456;28;19988;-71
2023/09/10 00:02:36;;;;;;;;;;;18.60;99.90;;;;;;5067616;28;19998;-71
2023/09/10 00:05:04;;;;;;;;;;;18.50;99.90;;;;;;5075150;28;19991;-70
2023/09/10 00:07:31;;;;;;;;;;;18.40;99.90;;;;;;5083511;28;20216;-72
2023/09/10 00:09:58;;;;;;;;;;;18.30;99.90;;;;;;5083407;28;19920;-71
2023/09/10 00:12:24;;;;;;;;;;;18.30;99.90;;;;;;5083689;28;20163;-72
2023/09/10 00:14:52;;;;;;;;;;;18.20;99.90;;;;;;5083227;28;19983;-70
2023/09/10 00:17:19;;;;;;;;;;;18.20;99.90;;;;;;5083235;28;19964;-71
2023/09/10 00:19:45;;;;;;;;;;;18.20;99.90;;;;;;5083350;28;19983;-70
2023/09/10 00:22:12;;;;;;;;;;;18.20;99.90;;;;;;5083227;28;19920;-71
2023/09/10 00:24:39;;;;;;;;;;;18.10;99.90;;;;;;5083368;28;19920;-71
2023/09/10 00:27:06;;;;;;;;;;;18.10;99.90;;;;;;5083507;28;19925;-71
2023/09/10 00:29:32;;;;;;;;;;;18.10;99.90;;;;;;5082871;28;19927;-70
2023/09/10 00:32:00;;;;;;;;;;;18.00;99.90;;;;;;5083399;28;19921;-70
2023/09/10 00:34:30;;;;;;;;;;;18.00;99.90;;;;;;5082918;28;20251;-71
2023/09/10 00:36:56;;;;;;;;;;;18.00;99.90;;;;;;5068691;28;20185;-70
2023/09/10 00:39:23;;;;;;;;;;;17.90;99.90;;;;;;5062692;28;19921;-70
2023/09/10 00:41:53;;;;;;;;;;;17.90;99.90;;;;;;5063369;28;20003;-71
2023/09/10 00:44:20;;;;;;;;;;;17.90;99.90;;;;;;5073081;28;19929;-70
2023/09/10 00:46:47;;;;;;;;;;;17.90;99.90;;;;;;5083365;28;20110;-70
2023/09/10 00:49:15;;;;;;;;;;;17.90;99.90;;;;;;5083714;28;19956;-71
2023/09/10 00:51:41;;;;;;;;;;;17.90;99.90;;;;;;5087054;28;20286;-71
2023/09/10 00:54:08;;;;;;;;;;;17.90;99.90;;;;;;5087229;28;20007;-71
2023/09/10 00:56:35;;;;;;;;;;;17.80;99.90;;;;;;5087025;28;19955;-71
2023/09/10 00:59:01;;;;;;;;;;;17.90;99.90;;;;;;5086911;28;20015;-70
2023/09/10 01:01:29;;;;;;;;;;;17.80;99.90;;;;;;5080250;28;20181;-70
2023/09/10 01:03:55;;;;;;;;;;;17.80;99.90;;;;;;5075241;28;19979;-70
2023/09/10 01:06:24;;;;;;;;;;;17.80;99.90;;;;;;5085425;28;20188;-71
2023/09/10 01:08:51;;;;;;;;;;;17.80;99.90;;;;;;5086880;28;19927;-70
2023/09/10 01:11:20;;;;;;;;;;;17.70;99.90;;;;;;5086502;28;19983;-71
2023/09/10 01:13:51;;;;;;;;;;;17.70;99.90;;;;;;5086561;28;20192;-71
2023/09/10 01:16:20;;;;;;;;;;;17.70;99.90;;;;;;5086567;28;20194;-70
2023/09/10 01:18:48;;;;;;;;;;;17.70;99.90;;;;;;5086606;28;19988;-71
2023/09/10 01:21:20;;;;;;;;;;;17.70;99.90;;;;;;5086403;28;20215;-71
2023/09/10 01:23:53;;;;;;;;;;;17.60;99.90;;;;;;5086729;28;19924;-71
2023/09/10 01:26:21;;;;;;;;;;;17.50;99.90;;;;;;5086549;28;20161;-70
2023/09/10 01:28:48;;;;;;;;;;;17.50;99.90;;;;;;5086115;28;19956;-70
2023/09/10 01:31:14;;;;;;;;;;;17.50;99.90;;;;;;5086474;28;19988;-71
2023/09/10 01:33:44;;;;;;;;;;;17.50;99.90;;;;;;5083909;28;19956;-72
2023/09/10 01:36:12;;;;;;;;;;;17.50;99.90;;;;;;5069994;28;19985;-70
2023/09/10 01:38:41;;;;;;;;;;;17.40;99.90;;;;;;5065844;28;19960;-71
2023/09/10 01:41:10;;;;;;;;;;;17.40;99.90;;;;;;5065912;28;20287;-71
2023/09/10 01:43:39;;;;;;;;;;;17.40;99.90;;;;;;5066163;28;19980;-70
2023/09/10 01:46:06;;;;;;;;;;;17.40;99.90;;;;;;5065889;28;19996;-70
2023/09/10 01:48:33;;;;;;;;;;;17.40;99.90;;;;;;5065891;28;19956;-71
2023/09/10 01:51:00;;;;;;;;;;;17.40;99.90;;;;;;5066009;28;20189;-71
2023/09/10 01:53:26;;;;;;;;;;;17.30;99.90;;;;;;5066129;28;20244;-70
2023/09/10 01:55:53;;;;;;;;;;;17.30;99.90;;;;;;5065876;28;19927;-70
2023/09/10 01:58:19;;;;;;;;;;;17.30;99.90;;;;;;5066030;28;20120;-71
2023/09/10 02:00:47;;;;;;;;;;;17.30;99.90;;;;;;5064676;28;19991;-71
2023/09/10 02:03:14;;;;;;;;;;;17.30;99.90;;;;;;5075060;28;19956;-70
2023/09/10 02:05:42;;;;;;;;;;;17.30;99.90;;;;;;5072528;28;19988;-70
2023/09/10 02:08:08;;;;;;;;;;;17.20;99.90;;;;;;5065793;28;19956;-70
2023/09/10 02:10:35;;;;;;;;;;;17.10;99.90;;;;;;5065323;28;20205;-70
2023/09/10 02:13:03;;;;;;;;;;;17.10;99.90;;;;;;5065510;28;19956;-71
2023/09/10 02:15:30;;;;;;;;;;;17.10;99.90;;;;;;5065451;28;20227;-70
2023/09/10 02:17:58;;;;;;;;;;;17.10;99.90;;;;;;5065664;28;19987;-70
2023/09/10 02:20:24;;;;;;;;;;;17.10;99.90;;;;;;5065325;28;19988;-72
2023/09/10 02:22:51;;;;;;;;;;;17.00;99.90;;;;;;5065416;28;20345;-70
2023/09/10 02:25:18;;;;;;;;;;;17.00;99.90;;;;;;5065492;28;19984;-70
2023/09/10 02:27:44;;;;;;;;;;;17.00;99.90;;;;;;5065467;28;19963;-71
2023/09/10 02:30:11;;;;;;;;;;;17.00;99.90;;;;;;5065049;28;20419;-70
2023/09/10 02:32:39;;;;;;;;;;;16.90;99.90;;;;;;5063549;28;20473;-70
2023/09/10 02:35:08;;;;;;;;;;;16.90;99.90;;;;;;5056763;28;19924;-70
2023/09/10 02:37:34;;;;;;;;;;;16.90;99.90;;;;;;5065232;28;20148;-71
2023/09/10 02:40:01;;;;;;;;;;;16.80;99.90;;;;;;5064679;28;19927;-70
2023/09/10 02:45:31;;;;;;;;;;;16.80;99.90;;;;;;5038060;28;19971;-90
2023/09/10 02:47:57;;;;;;;;;;;16.70;99.90;;;;;;5024755;28;19957;-90
2023/09/10 02:50:25;;;;;;;;;;;16.70;99.90;;;;;;5025860;28;19988;-90
2023/09/10 02:52:52;;;;;;;;;;;16.70;99.90;;;;;;5022153;28;19952;-91
2023/09/10 02:55:20;;;;;;;;;;;16.70;99.90;;;;;;5025476;28;19921;-90
2023/09/10 02:57:47;;;;;;;;;;;16.70;99.90;;;;;;5024576;28;19989;-90
2023/09/10 03:00:14;;;;;;;;;;;16.70;99.90;;;;;;5011736;28;19948;-91
2023/09/10 03:02:41;;;;;;;;;;;16.70;99.90;;;;;;5018889;28;20177;-90
2023/09/10 03:05:08;;;;;;;;;;;16.60;99.90;;;;;;5024945;28;19956;-91
2023/09/10 03:07:36;;;;;;;;;;;16.60;99.90;;;;;;5024922;28;19921;-90
2023/09/10 03:10:03;;;;;;;;;;;16.60;99.90;;;;;;5025576;28;19921;-91
2023/09/10 03:12:30;;;;;;;;;;;16.60;99.90;;;;;;5025172;28;20220;-90
2023/09/10 03:14:57;;;;;;;;;;;16.60;99.90;;;;;;5024475;28;19922;-90
2023/09/10 03:17:24;;;;;;;;;;;16.50;99.90;;;;;;5025312;28;19952;-90
2023/09/10 03:19:52;;;;;;;;;;;16.50;99.90;;;;;;5003986;28;22023;-91
2023/09/10 03:22:19;;;;;;;;;;;16.50;99.90;;;;;;5023134;28;20048;-89
2023/09/10 03:24:47;;;;;;;;;;;16.50;99.90;;;;;;5024548;28;19985;-90
2023/09/10 03:27:14;;;;;;;;;;;16.50;99.90;;;;;;5024862;28;19956;-91
2023/09/10 03:29:42;;;;;;;;;;;16.50;99.90;;;;;;5025567;28;19929;-90
2023/09/10 03:32:09;;;;;;;;;;;16.40;99.90;;;;;;5025192;28;19956;-91
2023/09/10 03:34:36;;;;;;;;;;;16.40;99.90;;;;;;5024340;28;19927;-90
2023/09/10 03:37:05;;;;;;;;;;;16.40;99.90;;;;;;5024517;28;19921;-90
2023/09/10 03:39:32;;;;;;;;;;;16.40;99.90;;;;;;5022781;28;19940;-90
2023/09/10 03:42:00;;;;;;;;;;;16.40;99.90;;;;;;5024958;28;19992;-91
2023/09/10 03:44:27;;;;;;;;;;;16.40;99.90;;;;;;5024204;28;20192;-90
2023/09/10 03:46:54;;;;;;;;;;;16.30;99.90;;;;;;5024729;28;19985;-90
2023/09/10 03:49:20;;;;;;;;;;;16.30;99.90;;;;;;5024663;28;19985;-90
2023/09/10 03:51:48;;;;;;;;;;;16.30;99.90;;;;;;5024762;28;19981;-90
2023/09/10 03:54:15;;;;;;;;;;;16.30;99.90;;;;;;5023792;28;19928;-90
2023/09/10 03:56:42;;;;;;;;;;;16.30;99.90;;;;;;5024628;28;19948;-91
2023/09/10 03:59:10;;;;;;;;;;;16.20;99.90;;;;;;5024539;28;19929;-91
2023/09/10 04:01:37;;;;;;;;;;;16.20;99.90;;;;;;5020838;28;20181;-91
2023/09/10 04:04:04;;;;;;;;;;;16.20;99.90;;;;;;5018078;28;20251;-91
2023/09/10 04:06:30;;;;;;;;;;;16.10;99.90;;;;;;5024431;28;19949;-92
2023/09/10 04:08:57;;;;;;;;;;;16.10;99.90;;;;;;5024035;28;19985;-90
2023/09/10 04:11:24;;;;;;;;;;;16.10;99.90;;;;;;5024715;28;19958;-90
2023/09/10 04:13:51;;;;;;;;;;;16.10;99.90;;;;;;5024115;28;19981;-91
2023/09/10 04:16:19;;;;;;;;;;;16.10;99.90;;;;;;5024907;28;19941;-90
2023/09/10 04:18:45;;;;;;;;;;;16.00;99.90;;;;;;5024801;28;20228;-91
2023/09/10 04:21:12;;;;;;;;;;;16.00;99.90;;;;;;5024848;28;19921;-90
2023/09/10 04:23:39;;;;;;;;;;;15.90;99.90;;;;;;5023524;28;19964;-90
2023/09/10 04:26:05;;;;;;;;;;;15.90;99.90;;;;;;5023653;28;19993;-90
2023/09/10 04:28:32;;;;;;;;;;;15.90;99.90;;;;;;5022475;28;19945;-90
2023/09/10 04:30:59;;;;;;;;;;;15.80;99.90;;;;;;5024347;28;19952;-91
2023/09/10 04:33:27;;;;;;;;;;;15.80;99.90;;;;;;5024956;28;19989;-90
2023/09/10 04:35:57;;;;;;;;;;;15.80;99.90;;;;;;5024306;28;19913;-90
2023/09/10 04:38:23;;;;;;;;;;;15.80;99.90;;;;;;5023816;28;19921;-91
2023/09/10 04:40:50;;;;;;;;;;;15.80;99.90;;;;;;5018143;28;19922;-90
2023/09/10 04:43:17;;;;;;;;;;;15.80;99.90;;;;;;5024054;28;19922;-91
2023/09/10 04:45:44;;;;;;;;;;;15.80;99.90;;;;;;5023032;28;19953;-91
2023/09/10 04:48:12;;;;;;;;;;;15.80;99.90;;;;;;5024083;28;19981;-90
2023/09/10 04:50:40;;;;;;;;;;;15.80;99.90;;;;;;5024169;28;19926;-90
2023/09/10 04:53:07;;;;;;;;;;;15.70;99.90;;;;;;5023988;28;19985;-93
2023/09/10 04:55:34;;;;;;;;;;;15.70;99.90;;;;;;5023156;28;19951;-91
2023/09/10 04:58:00;;;;;;;;;;;15.70;99.90;;;;;;5024173;28;19977;-90
2023/09/10 05:00:27;;;;;;;;;;;15.70;99.90;;;;;;5023949;28;20009;-90
2023/09/10 05:02:54;;;;;;;;;;;15.70;99.90;;;;;;5023938;28;19984;-90
2023/09/10 05:05:21;;;;;;;;;;;15.70;99.90;;;;;;5023439;28;20447;-90
2023/09/10 05:07:50;;;;;;;;;;;15.60;99.90;;;;;;5018139;28;20008;-90
2023/09/10 05:10:17;;;;;;;;;;;15.60;99.90;;;;;;5023446;28;19921;-90
2023/09/10 05:12:43;;;;;;;;;;;15.60;99.90;;;;;;5020642;28;20001;-91
2023/09/10 05:15:11;;;;;;;;;;;15.60;99.90;;;;;;5020664;28;20186;-90
2023/09/10 05:17:38;;;;;;;;;;;15.60;99.90;;;;;;5024139;28;19964;-91
2023/09/10 05:20:06;;;;;;;;;;;15.60;99.90;;;;;;5042775;23;19921;-71
2023/09/10 05:22:32;;;;;;;;;;;15.60;99.90;;;;;;5032744;28;20087;-72
2023/09/10 05:25:00;;;;;;;;;;;15.60;99.90;;;;;;5033434;28;19921;-70
2023/09/10 05:27:27;;;;;;;;;;;15.60;99.90;;;;;;5031719;28;19988;-71
2023/09/10 05:29:53;;;;;;;;;;;15.60;99.90;;;;;;5032592;28;20165;-70
2023/09/10 05:32:20;;;;;;;;;;;15.60;99.90;;;;;;5036775;28;19952;-70
2023/09/10 05:34:47;;;;;;;;;;;15.50;99.90;;;;;;5032145;28;19921;-71
2023/09/10 05:37:13;;;;;;;;;;;15.60;99.90;;;;;;5033486;28;19929;-70
2023/09/10 05:39:40;;;;;;;;;;;15.60;99.90;;;;;;5031690;28;19971;-71
2023/09/10 05:42:08;;;;;;;;;;;15.60;99.90;;;;;;5030507;28;19959;-70
2023/09/10 05:44:34;;;;;;;;;;;15.60;99.90;;;;;;5035576;28;19988;-71
2023/09/10 05:47:01;;;;;;;;;;;15.60;99.90;;;;;;5041925;28;20121;-71
2023/09/10 05:49:28;;;;;;;;;;;15.60;99.90;;;;;;5041020;28;19920;-70
2023/09/10 05:51:54;;;;;;;;;;;15.60;99.90;;;;;;5037556;28;20114;-70
2023/09/10 05:54:21;;;;;;;;;;;15.70;99.90;;;;;;5038135;28;19921;-70
2023/09/10 05:56:48;;;;;;;;;;;15.70;99.90;;;;;;5035365;28;19957;-70
2023/09/10 05:59:16;;;;;;;;;;;15.70;99.90;;;;;;5040478;28;20173;-70
2023/09/10 06:01:43;;;;;;;;;;;15.80;99.90;;;;;;5037996;28;19985;-70
2023/09/10 06:04:10;;;;;;;;;;;15.80;99.90;;;;;;5031895;28;19960;-70
2023/09/10 06:06:36;;;;;;;;;;;15.80;99.90;;;;;;5039621;28;20246;-70
2023/09/10 06:09:04;;;;;;;;;;;15.90;99.90;;;;;;5041322;28;19964;-71
2023/09/10 06:11:31;;;;;;;;;;;15.90;99.90;;;;;;5039327;28;19965;-70
2023/09/10 06:13:57;;;;;;;;;;;16.00;99.90;;;;;;5041013;28;19921;-70
2023/09/10 06:16:25;;;;;;;;;;;16.00;99.90;;;;;;5039032;28;19984;-71
2023/09/10 06:18:52;;;;;;;;;;;16.00;99.90;;;;;;5041191;28;19984;-70
2023/09/10 06:21:19;;;;;;;;;;;16.10;99.90;;;;;;5039648;28;19988;-70
2023/09/10 06:23:45;;;;;;;;;;;16.20;99.90;;;;;;5044735;28;19985;-71
2023/09/10 06:26:12;;;;;;;;;;;16.20;99.90;;;;;;5040212;28;19921;-70
2023/09/10 06:28:39;;;;;;;;;;;16.20;99.90;;;;;;5039456;28;19929;-70
2023/09/10 06:31:06;;;;;;;;;;;16.30;99.90;;;;;;5040985;28;19956;-70
2023/09/10 06:33:34;;;;;;;;;;;16.40;99.90;;;;;;5038219;28;19927;-70
2023/09/10 06:36:01;;;;;;;;;;;16.40;99.90;;;;;;5040125;28;19952;-70
2023/09/10 06:38:28;;;;;;;;;;;16.50;99.90;;;;;;5046434;28;19980;-70
2023/09/10 06:40:55;;;;;;;;;;;16.60;99.90;;;;;;5040571;28;19967;-70
2023/09/10 06:43:22;;;;;;;;;;;16.60;99.90;;;;;;5038246;28;19956;-70
2023/09/10 06:45:51;;;;;;;;;;;16.70;99.90;;;;;;5029564;28;19928;-71
2023/09/10 06:48:18;;;;;;;;;;;16.80;99.90;;;;;;5030620;28;20122;-72
2023/09/10 06:50:46;;;;;;;;;;;16.90;99.90;;;;;;5029783;28;20226;-71
2023/09/10 06:53:13;;;;;;;;;;;17.00;99.90;;;;;;5030328;28;19925;-71
2023/09/10 06:55:39;;;;;;;;;;;17.00;99.90;;;;;;5039827;28;20226;-71
2023/09/10 06:58:06;;;;;;;;;;;17.10;99.90;;;;;;5034443;28;19927;-71
2023/09/10 07:00:34;;;;;;;;;;;17.20;99.90;;;;;;5032888;28;20259;-71
2023/09/10 07:03:02;;;;;;;;;;;17.20;99.90;;;;;;5032616;28;20237;-71
2023/09/10 07:05:28;;;;;;;;;;;17.30;99.90;;;;;;5031461;28;19921;-70
2023/09/10 07:07:56;;;;;;;;;;;17.30;99.90;;;;;;5028885;28;20005;-71
2023/09/10 07:10:23;;;;;;;;;;;17.50;99.90;;;;;;5031753;28;19956;-71
2023/09/10 07:12:50;;;;;;;;;;;17.50;99.90;;;;;;5040067;28;19980;-71
2023/09/10 07:15:16;;;;;;;;;;;17.60;99.90;;;;;;5037884;28;20237;-71
2023/09/10 07:17:43;;;;;;;;;;;17.80;99.90;;;;;;5035517;28;19981;-70
2023/09/10 07:20:11;;;;;;;;;;;17.90;99.90;;;;;;5039075;28;19921;-71
2023/09/10 07:22:37;;;;;;;;;;;18.00;99.90;;;;;;5038100;28;19921;-70
2023/09/10 07:25:06;;;;;;;;;;;18.10;99.90;;;;;;5039962;28;20225;-71
2023/09/10 07:27:32;;;;;;;;;;;18.20;99.90;;;;;;5037248;28;20122;-71
2023/09/10 07:29:59;;;;;;;;;;;18.30;99.90;;;;;;5036535;28;19994;-71
2023/09/10 07:32:26;;;;;;;;;;;18.40;99.90;;;;;;5036037;28;20143;-70
2023/09/10 07:34:52;;;;;;;;;;;18.50;99.90;;;;;;5033719;28;19988;-70
2023/09/10 07:37:20;;;;;;;;;;;18.60;99.90;;;;;;5033565;28;20211;-70
2023/09/10 07:39:46;;;;;;;;;;;18.70;99.90;;;;;;5040624;28;19984;-71
2023/09/10 07:42:14;;;;;;;;;;;18.80;99.90;;;;;;5035607;28;19984;-70
2023/09/10 07:44:41;;;;;;;;;;;19.00;99.90;;;;;;5031837;28;20174;-70
2023/09/10 07:47:08;;;;;;;;;;;19.00;99.90;;;;;;5039054;28;20153;-70
2023/09/10 07:49:35;;;;;;;;;;;19.10;99.90;;;;;;5033432;28;19953;-70
2023/09/10 07:52:03;;;;;;;;;;;19.20;99.90;;;;;;5033858;28;19985;-71
2023/09/10 07:54:29;;;;;;;;;;;19.30;99.90;;;;;;5024054;28;19928;-70
2023/09/10 07:56:56;;;;;;;;;;;19.40;99.90;;;;;;5038946;28;19924;-70
2023/09/10 07:59:24;;;;;;;;;;;19.50;99.90;;;;;;5029538;28;19989;-71
2023/09/10 08:01:51;;;;;;;;;;;19.60;99.90;;;;;;5031935;28;19953;-70
2023/09/10 08:04:17;;;;;;;;;;;19.70;99.90;;;;;;5023347;28;19930;-70
2023/09/10 08:06:44;;;;;;;;;;;19.70;99.90;;;;;;5031946;28;19984;-70
2023/09/10 08:09:10;;;;;;;;;;;19.90;99.90;;;;;;5037866;28;19952;-70
2023/09/10 08:11:37;;;;;;;;;;;20.00;99.90;;;;;;5046444;28;19927;-70
2023/09/10 08:14:04;;;;;;;;;;;20.10;99.90;;;;;;5047893;28;20427;-70
2023/09/10 08:16:32;;;;;;;;;;;20.20;99.90;;;;;;5036018;28;19979;-70
2023/09/10 08:18:58;;;;;;;;;;;20.20;99.90;;;;;;5038218;28;20253;-70
2023/09/10 08:21:25;;;;;;;;;;;20.30;99.90;;;;;;5036013;28;19984;-70
2023/09/10 08:23:52;;;;;;;;;;;20.40;99.90;;;;;;5037886;28;20286;-70
2023/09/10 08:26:19;;;;;;;;;;;20.60;99.90;;;;;;5036474;28;19921;-70
2023/09/10 08:28:46;;;;;;;;;;;20.60;99.90;;;;;;5037516;28;19933;-70
2023/09/10 08:31:12;;;;;;;;;;;20.70;99.90;;;;;;5037465;28;19932;-70
2023/09/10 08:33:40;;;;;;;;;;;20.70;99.90;;;;;;5036498;28;19985;-70
2023/09/10 08:36:07;;;;;;;;;;;20.90;99.90;;;;;;5034303;28;20249;-70
2023/09/10 08:38:34;;;;;;;;;;;21.00;99.90;;;;;;5035757;28;19957;-70
2023/09/10 08:41:04;;;;;;;;;;;21.10;99.90;;;;;;5038214;28;19956;-71
2023/09/10 08:43:33;;;;;;;;;;;21.20;99.90;;;;;;5035497;28;19981;-70
2023/09/10 08:46:00;;;;;;;;;;;21.40;99.90;;;;;;5037690;28;19989;-70
2023/09/10 08:48:28;;;;;;;;;;;21.40;99.90;;;;;;5035172;28;19984;-71
2023/09/10 08:50:57;;;;;;;;;;;21.50;99.90;;;;;;5037880;28;19921;-71
2023/09/10 08:53:24;;;;;;;;;;;21.60;99.90;;;;;;5035724;28;20157;-71
2023/09/10 08:55:50;;;;;;;;;;;21.80;99.90;;;;;;5035492;28;20173;-70
2023/09/10 08:58:17;;;;;;;;;;;21.80;99.90;;;;;;5032521;28;19980;-70
2023/09/10 09:00:45;;;;;;;;;;;21.90;99.90;;;;;;5034276;28;19921;-71
2023/09/10 09:03:12;;;;;;;;;;;22.10;99.90;;;;;;5031620;28;19992;-70
2023/09/10 09:05:40;;;;;;;;;;;22.20;99.90;;;;;;5038430;28;19943;-71
2023/09/10 09:08:11;;;;;;;;;;;22.30;99.90;;;;;;5038739;28;20004;-75
2023/09/10 09:10:37;;;;;;;;;;;22.30;99.90;;;;;;5033090;28;19981;-70
2023/09/10 09:13:06;;;;;;;;;;;22.50;99.90;;;;;;5038864;28;19922;-70
2023/09/10 09:15:33;;;;;;;;;;;22.60;99.90;;;;;;5038826;28;19956;-71
2023/09/10 09:17:59;;;;;;;;;;;22.70;99.90;;;;;;5037088;28;19922;-70
2023/09/10 09:20:26;;;;;;;;;;;22.70;99.90;;;;;;5032216;28;19976;-70
2023/09/10 09:22:55;;;;;;;;;;;22.80;99.90;;;;;;5032972;28;19960;-69
2023/09/10 09:25:23;;;;;;;;;;;22.90;99.90;;;;;;5040748;28;20369;-70
2023/09/10 09:27:51;;;;;;;;;;;23.00;99.90;;;;;;5041055;28;19983;-70
2023/09/10 09:30:17;;;;;;;;;;;23.10;99.90;;;;;;5034108;28;19991;-70
2023/09/10 09:32:45;;;;;;;;;;;23.20;99.90;;;;;;5039653;28;19929;-70
2023/09/10 09:35:12;;;;;;;;;;;23.30;99.90;;;;;;5039702;28;20005;-70
2023/09/10 09:37:38;;;;;;;;;;;23.40;99.90;;;;;;5040242;28;19921;-71
2023/09/10 09:40:09;;;;;;;;;;;23.60;99.90;;;;;;5029300;28;19928;-71
2023/09/10 09:42:37;;;;;;;;;;;23.70;99.90;;;;;;5027708;28;19926;-71
2023/09/10 09:45:04;;;;;;;;;;;23.80;99.90;;;;;;5043388;28;19992;-70
2023/09/10 09:47:30;;;;;;;;;;;24.00;99.90;;;;;;5036075;28;19956;-71
2023/09/10 09:49:57;;;;;;;;;;;24.10;99.90;;;;;;5031215;28;19921;-71
2023/09/10 09:52:24;;;;;;;;;;;24.20;99.90;;;;;;5026141;28;19928;-71
2023/09/10 09:54:51;;;;;;;;;;;24.30;99.90;;;;;;5037380;28;19921;-71
2023/09/10 09:57:17;;;;;;;;;;;24.40;99.90;;;;;;5039110;28;19959;-71
2023/09/10 09:59:45;;;;;;;;;;;24.50;99.90;;;;;;5033610;28;19921;-71
2023/09/10 10:02:14;;;;;;;;;;;24.60;99.90;;;;;;5036998;28;20004;-71
2023/09/10 10:04:42;;;;;;;;;;;24.70;99.90;;;;;;5044134;28;19929;-71
2023/09/10 10:07:09;;;;;;;;;;;24.80;99.90;;;;;;5040289;28;19928;-71
2023/09/10 10:09:36;;;;;;;;;;;24.90;99.90;;;;;;5033445;28;19963;-71
2023/09/10 10:12:03;;;;;;;;;;;25.10;99.90;;;;;;5041593;28;19987;-73
2023/09/10 10:14:30;;;;;;;;;;;25.20;99.90;;;;;;5036176;28;20334;-71
2023/09/10 10:17:00;;;;;;;;;;;25.30;99.90;;;;;;5045195;28;20158;-73
2023/09/10 10:19:27;;;;;;;;;;;25.40;99.90;;;;;;5037228;28;19959;-72
2023/09/10 10:21:55;;;;;;;;;;;25.60;99.90;;;;;;5036743;28;19949;-71
2023/09/10 10:24:22;;;;;;;;;;;25.70;99.90;;;;;;5055241;28;19921;-71
2023/09/10 10:26:49;;;;;;;;;;;25.80;99.90;;;;;;5045988;28;19922;-71
2023/09/10 10:29:17;;;;;;;;;;;25.90;99.90;;;;;;5038865;28;19927;-72
2023/09/10 10:31:46;;;;;;;;;;;26.10;99.90;;;;;;5038563;28;19988;-72
2023/09/10 10:34:15;;;;;;;;;;;26.20;99.90;;;;;;5038763;28;19929;-71
2023/09/10 10:36:47;;;;;;;;;;;26.30;99.90;;;;;;5036350;28;19921;-71
2023/09/10 10:39:16;;;;;;;;;;;26.40;99.90;;;;;;5034226;28;19989;-72
2023/09/10 10:41:44;;;;;;;;;;;26.50;99.90;;;;;;5038361;28;19932;-71
2023/09/10 10:44:19;;;;;;;;;;;26.60;99.90;;;;;;5043952;28;19992;-72
2023/09/10 10:46:46;;;;;;;;;;;26.70;99.90;;;;;;5038766;28;20233;-71
2023/09/10 10:49:13;;;;;;;;;;;26.80;99.90;;;;;;5044536;28;20060;-69
2023/09/10 10:51:45;;;;;;;;;;;26.80;99.90;;;;;;5041713;28;19976;-69
2023/09/10 10:54:13;;;;;;;;;;;26.70;99.90;;;;;;5043443;28;19921;-69
2023/09/10 10:56:39;;;;;;;;;;;26.80;99.90;;;;;;5039537;28;20257;-68
2023/09/10 10:59:06;;;;;;;;;;;26.90;99.90;;;;;;5034024;28;20181;-69
2023/09/10 11:01:33;;;;;;;;;;;27.10;99.90;;;;;;5039219;28;20169;-68
2023/09/10 11:04:17;;;;;;;;;;;27.20;99.90;;;;;;5034265;28;19988;-68
2023/09/10 11:09:38;;;;;;;;;;;27.50;99.90;;;;;;5141364;27;20193;-71
2023/09/10 11:12:07;;;;;;;;;;;27.70;99.90;;;;;;5136955;28;20179;-69
2023/09/10 11:14:48;;;;;;;;;;;27.90;99.90;;;;;;5138280;28;19951;-70
2023/09/10 11:17:22;;;;;;;;;;;28.00;99.90;;;;;;5135943;28;19926;-70
2023/09/10 11:19:49;;;;;;;;;;;28.00;99.90;;;;;;5138890;27;20003;-70
2023/09/10 11:22:15;;;;;;;;;;;28.10;99.90;;;;;;5136355;28;19954;-70
2023/09/10 11:24:43;;;;;;;;;;;28.30;99.90;;;;;;5136500;27;19927;-71
2023/09/10 11:27:20;;;;;;;;;;;28.50;99.90;;;;;;5134831;28;19926;-69
2023/09/10 11:30:02;;;;;;;;;;;28.60;99.90;;;;;;5137286;28;19919;-70
2023/09/10 11:32:28;;;;;;;;;;;28.70;99.90;;;;;;5140594;27;20110;-70
2023/09/10 11:35:20;;;;;;;;;;;28.80;99.90;;;;;;5129180;27;19920;-70
2023/09/10 11:37:48;;;;;;;;;;;28.80;99.90;;;;;;5129339;28;19935;-70
2023/09/10 11:40:17;;;;;;;;;;;28.80;99.90;;;;;;5146733;27;19947;-71
2023/09/10 11:42:45;;;;;;;;;;;28.70;99.90;;;;;;5135200;28;19927;-72
2023/09/10 11:45:12;;;;;;;;;;;28.50;99.90;;;;;;5134361;27;19920;-70
2023/09/10 11:47:40;;;;;;;;;;;28.40;99.90;;;;;;5132540;28;19920;-71
2023/09/10 11:50:09;;;;;;;;;;;28.30;99.90;;;;;;5136665;27;19920;-70
2023/09/10 11:52:35;;;;;;;;;;;28.10;99.90;;;;;;5140344;28;19926;-70
2023/09/10 11:55:04;;;;;;;;;;;28.00;99.90;;;;;;5142520;27;19951;-70
2023/09/10 11:57:32;;;;;;;;;;;27.80;99.90;;;;;;5127286;27;19926;-69
2023/09/10 11:59:59;;;;;;;;;;;27.70;99.90;;;;;;5134795;27;19983;-69
2023/09/10 12:02:27;;;;;;;;;;;27.60;99.90;;;;;;5132015;27;19920;-70
2023/09/10 12:04:53;;;;;;;;;;;27.50;99.90;;;;;;5140378;27;19987;-72
2023/09/10 12:07:20;;;;;;;;;;;27.50;99.90;;;;;;5140546;27;19920;-69
2023/09/10 12:09:47;;;;;;;;;;;27.40;99.90;;;;;;5135107;27;19927;-71
2023/09/10 12:12:16;;;;;;;;;;;27.40;99.90;;;;;;5127183;28;19962;-69
2023/09/10 12:14:44;;;;;;;;;;;27.40;99.90;;;;;;5137033;27;20482;-69
2023/09/10 12:17:11;;;;;;;;;;;27.40;99.90;;;;;;5133889;27;19978;-70
2023/09/10 12:19:38;;;;;;;;;;;27.40;99.90;;;;;;5128961;28;19958;-70
2023/09/10 12:22:10;;;;;;;;;;;27.60;99.90;;;;;;5120650;28;19954;-71
2023/09/10 12:24:37;;;;;;;;;;;27.90;99.90;;;;;;5116715;28;19924;-73
2023/09/10 12:27:04;;;;;;;;;;;28.30;99.90;;;;;;5111454;28;19991;-70
2023/09/10 12:29:31;;;;;;;;;;;28.60;99.90;;;;;;5117110;28;19920;-70
2023/09/10 12:31:59;;;;;;;;;;;28.90;99.90;;;;;;5123170;27;19994;-72
2023/09/10 12:34:25;;;;;;;;;;;29.10;99.90;;;;;;5119606;28;19963;-70
2023/09/10 12:36:52;;;;;;;;;;;29.40;99.90;;;;;;5126141;28;19958;-70
2023/09/10 12:39:19;;;;;;;;;;;29.50;99.90;;;;;;5124600;28;19926;-70
2023/09/10 12:41:48;;;;;;;;;;;29.70;99.90;;;;;;5118920;28;19920;-70
2023/09/10 12:44:15;;;;;;;;;;;29.80;99.90;;;;;;5122334;28;20256;-70
2023/09/10 12:46:41;;;;;;;;;;;30.10;99.90;;;;;;5112702;28;19987;-70
2023/09/10 12:49:09;;;;;;;;;;;30.20;99.90;;;;;;5117614;28;20176;-69
2023/09/10 12:51:36;;;;;;;;;;;30.20;99.90;;;;;;5111591;28;19995;-69
2023/09/10 12:54:03;;;;;;;;;;;30.10;99.90;;;;;;5119500;28;19959;-70
2023/09/10 12:56:29;;;;;;;;;;;30.20;99.90;;;;;;5128147;27;19923;-71
2023/09/10 12:58:56;;;;;;;;;;;30.30;99.90;;;;;;5119631;28;20182;-70
2023/09/10 13:01:25;;;;;;;;;;;30.20;99.90;;;;;;5112039;28;20247;-71
2023/09/10 13:03:52;;;;;;;;;;;30.30;99.90;;;;;;5116274;28;19958;-70
2023/09/10 13:06:20;;;;;;;;;;;30.00;99.90;;;;;;5118717;28;20189;-72
2023/09/10 13:08:46;;;;;;;;;;;29.90;99.90;;;;;;5116771;28;20260;-70
2023/09/10 13:11:13;;;;;;;;;;;29.70;99.90;;;;;;5115906;28;20233;-70
2023/09/10 13:13:40;;;;;;;;;;;29.50;99.90;;;;;;5117669;28;19919;-70
2023/09/10 13:16:06;;;;;;;;;;;29.50;99.90;;;;;;5121723;28;19920;-74
2023/09/10 13:18:33;;;;;;;;;;;29.30;99.90;;;;;;5120898;28;19942;-71
2023/09/10 13:20:59;;;;;;;;;;;29.20;99.90;;;;;;5119291;28;19934;-70
2023/09/10 13:23:27;;;;;;;;;;;29.10;99.90;;;;;;5119907;28;19923;-70
2023/09/10 13:25:54;;;;;;;;;;;29.20;99.90;;;;;;5121259;28;19982;-72
2023/09/10 13:28:21;;;;;;;;;;;29.50;99.90;;;;;;5122699;28;19923;-70
2023/09/10 13:30:47;;;;;;;;;;;29.70;99.90;;;;;;5112303;28;20244;-74
2023/09/10 13:33:14;;;;;;;;;;;29.50;99.90;;;;;;5120531;28;19947;-72
2023/09/10 13:35:40;;;;;;;;;;;29.40;99.90;;;;;;5122726;28;19943;-75
2023/09/10 13:38:06;;;;;;;;;;;29.30;99.90;;;;;;5122034;28;20209;-68
2023/09/10 13:40:35;;;;;;;;;;;29.20;99.90;;;;;;5110373;28;19958;-70
2023/09/10 13:43:02;;;;;;;;;;;29.10;99.90;;;;;;5120720;27;19920;-71
2023/09/10 13:45:29;;;;;;;;;;;29.10;99.90;;;;;;5125921;27;19919;-70
2023/09/10 13:47:55;;;;;;;;;;;29.00;99.90;;;;;;5116928;28;19987;-69
2023/09/10 13:50:22;;;;;;;;;;;28.90;99.90;;;;;;5123643;28;19920;-70
2023/09/10 13:52:49;;;;;;;;;;;28.80;99.90;;;;;;5120504;28;19982;-71
2023/09/10 13:55:15;;;;;;;;;;;28.50;99.90;;;;;;5123679;28;20132;-69
2023/09/10 13:57:43;;;;;;;;;;;28.40;99.90;;;;;;5125395;27;19926;-71
2023/09/10 14:00:11;;;;;;;;;;;28.60;99.90;;;;;;5114316;28;19974;-69
2023/09/10 14:02:37;;;;;;;;;;;28.90;99.90;;;;;;5117413;28;19943;-71
2023/09/10 14:05:04;;;;;;;;;;;29.00;99.90;;;;;;5121240;28;19920;-71
2023/09/10 14:07:31;;;;;;;;;;;29.10;99.90;;;;;;5121909;28;19920;-69
2023/09/10 14:09:58;;;;;;;;;;;29.10;99.90;;;;;;5123813;28;20166;-71
2023/09/10 14:12:24;;;;;;;;;;;29.30;99.90;;;;;;5119322;28;20184;-70
2023/09/10 14:14:52;;;;;;;;;;;29.30;99.90;;;;;;5123532;27;19987;-71
2023/09/10 14:17:19;;;;;;;;;;;29.40;99.90;;;;;;5126018;27;19942;-73
2023/09/10 14:19:46;;;;;;;;;;;29.30;99.90;;;;;;5124335;28;19947;-72
2023/09/10 14:22:12;;;;;;;;;;;29.30;99.90;;;;;;5117848;28;19920;-71